Aviation Digital Data Service (ADDS)

Output produced by METARs form (1825 UTC 16 August 2018)
found at http://www.aviationweather.gov/adds/metars/
 
EFET 161820Z AUTO 17009KT 110V220 9999 -RA OVC038 13/12 Q1008
EFHA 161820Z AUTO 15005KT CAVOK 18/11 Q1017
EFHK 161820Z 15008KT 9999 FEW030 BKN200 18/12 Q1019 NOSIG
TAF EFHK 161736Z 1618/1718 16007KT CAVOK
       
EFIV 161820Z AUTO 18006KT 140V230 CAVOK 15/10 Q1011
EFJO 161820Z 16003KT CAVOK 18/13 Q1018
TAF EFJO 161730Z 1618/1623 15003KT 9999 FEW035
       
EFJY 161820Z AUTO 16004KT CAVOK 18/11 Q1017
TAF EFJY 161736Z 1618/1718 18005KT CAVOK 
     PROB30 1713/1715 FEW040TCU SCT250
       
EFKI 161820Z AUTO 15003KT CAVOK 17/10 Q1016
TAF EFKI 161730Z 1618/1621 15002KT CAVOK
       
EFKE 161820Z 17003KT CAVOK 17/12 Q1012
TAF EFKE 161730Z 1618/1621 16005KT CAVOK
       
EFKT 161820Z AUTO 18010KT 9999 -SHRA NSC 14/11 Q1010
EFKK 161820Z 18007KT 150V220 9999 BKN047 20/12 Q1013
TAF EFKK 161730Z 1618/1623 18007KT CAVOK
       
EFKU 161820Z AUTO 17005KT CAVOK 18/10 Q1017
TAF EFKU 161730Z 1618/1718 18004KT CAVOK 
     TEMPO 1708/1714 19010G20KT
       
EFKS 161820Z AUTO 15007KT CAVOK 15/10 Q1015
EFLP 161820Z AUTO 17002KT CAVOK 17/11 Q1019
EFMA 161820Z 16011KT 140V210 CAVOK 19/17 Q1015
TAF EFMA 161736Z 1618/1703 17012KT 9999 FEW012 
     BECMG 1701/1703 BKN009 BKN050
       
EFMI 161820Z AUTO 16002KT CAVOK 18/11 Q1018
EFOU 161820Z AUTO 16007KT CAVOK 18/10 Q1013
TAF EFOU 161730Z 1618/1718 11003KT CAVOK 
     TEMPO 1709/1715 18010G22KT
       
EFPO 161820Z AUTO 17009KT CAVOK 19/13 Q1015
TAF EFPO 161429Z 1615/1621 20010KT 9999 SCT040
       
EFRO 161820Z AUTO 16005KT CAVOK 15/09 Q1013
TAF EFRO 161730Z 1618/1718 16005KT CAVOK 
     BECMG 1700/1702 BKN012 
     TEMPO 1702/1706 BKN007 
     BECMG 1707/1709 BKN015 
     TEMPO 1709/1718 19013G28KT SCT030TCU
       
EFSA 161820Z AUTO 16002KT CAVOK 17/12 Q1018
EFSI 161820Z AUTO 16005KT 130V190 CAVOK 19/12 Q1014
EFTP 161820Z AUTO 20005KT CAVOK 18/12 Q1017
TAF EFTP 161736Z 1618/1718 18006KT CAVOK 
     PROB30 1701/1705 BKN008 
     PROB30 1711/1715 FEW040TCU SCT250
       
EFTU 161820Z AUTO 17007KT 140V200 CAVOK 18/14 Q1017
TAF EFTU 161736Z 1618/1718 18007KT CAVOK
       
EFUT 161820Z AUTO 16004KT CAVOK 17/12 Q1019
TAF EFUT 161427Z 1615/1619 20009KT CAVOK
       
EFVA 161820Z AUTO 17008KT 9999 BKN040/// BKN046/// OVC063/// 19/13 Q1013
TAF EFVA 161730Z 1618/1718 18010KT 9999 FEW040 
     PROB30 
     TEMPO 1623/1706 BKN012 
     TEMPO 1706/1712 20015G27KT FEW030CB 
     TEMPO 1712/1718 20012G25KT SCT040CB